Anaheim, California
Current Conditions -  °F | °C
As of 4:53 AM on Thursday 27 Nov 2014 (Local Time) from KFUL Reporting Station
Clear Clear  
Wind Chill: 52°   Ceiling: Unl
Heat Index: 52°   Visibility: 10mi
Dew Point: 35°   Wind: 0mph
Humidity: 53%   Direction: NA
Pressure: 30.07"   Gusts: NA
Location:  33.83°N, 117.91°W
Report Text: KFUL 271253Z 00000KT 10SM CLR 11/02 A3007 RMK AO2 SLP180 T01110017
Loading
Personal Weather Stations






























Interactive Weather Map New forecast layout! Learn more

10-Day Weather Forecast

Advertisements
Track Severe Weather on mobile